Time;durP1;ratioP1;P1;durP2;ratioP2;P2;SDS_P1;SDS_P2;PMS_P1;PMS_P2;Temp;Humidity;BMP_temperature;BMP_pressure;BME280_temperature;BME280_humidity;BME280_pressure;Samples;Min_cycle;Max_cycle;Signal;HPM_P1;HPM_P2
2021/04/27 00:00:23;;;;;;;8.37;3.80;;;;;;;6.52;52.85;95300.19;1052579;28;20036;-73
2021/04/27 00:00:53;;;;;;;10.47;4.00;;;;;;;6.55;53.00;95299.63;1052615;28;20024;-73
2021/04/27 00:01:24;;;;;;;6.97;3.63;;;;;;;6.57;52.88;95296.75;1052611;28;20024;-73
2021/04/27 00:01:54;;;;;;;6.83;3.47;;;;;;;6.56;52.96;95290.63;1052300;28;20024;-73
2021/04/27 00:02:25;;;;;;;8.37;3.80;;;;;;;6.58;53.00;95293.81;1047948;28;20036;-72
2021/04/27 00:02:55;;;;;;;9.20;4.10;;;;;;;6.60;52.84;95298.84;1043665;28;20415;-72
2021/04/27 00:03:26;;;;;;;11.80;4.00;;;;;;;6.58;52.94;95290.38;1043717;28;20024;-72
2021/04/27 00:03:56;;;;;;;10.43;3.77;;;;;;;6.55;52.79;95294.31;1047812;28;20032;-72
2021/04/27 00:04:26;;;;;;;9.27;3.80;;;;;;;6.51;52.98;95293.28;1052308;28;20024;-72
2021/04/27 00:04:57;;;;;;;11.73;3.90;;;;;;;6.48;53.04;95293.78;1052641;28;20020;-72
2021/04/27 00:05:27;;;;;;;7.43;3.30;;;;;;;6.46;52.84;95290.59;1052664;28;20012;-72
2021/04/27 00:05:58;;;;;;;7.70;3.73;;;;;;;6.51;52.58;95291.41;1052582;28;20016;-73
2021/04/27 00:06:29;;;;;;;8.13;3.20;;;;;;;6.54;52.70;95289.28;1052640;28;20024;-72
2021/04/27 00:07:00;;;;;;;6.43;3.30;;;;;;;6.51;52.69;95291.41;1052585;28;20028;-72
2021/04/27 00:07:30;;;;;;;5.73;3.10;;;;;;;6.47;52.75;95290.34;1052320;28;20028;-72
2021/04/27 00:08:01;;;;;;;9.87;3.30;;;;;;;6.48;52.78;95288.47;1052341;28;20104;-72
2021/04/27 00:08:32;;;;;;;8.17;3.47;;;;;;;6.48;52.83;95289.28;1052590;28;20429;-72
2021/04/27 00:09:06;;;;;;;6.90;3.37;;;;;;;6.48;52.99;95294.59;1052293;28;20069;-72
2021/04/27 00:09:37;;;;;;;7.82;4.05;;;;;;;6.45;52.70;95294.31;1052329;28;20016;-72
2021/04/27 00:10:09;;;;;;;8.75;3.17;;;;;;;6.42;52.75;95292.97;1052232;28;20035;-73
2021/04/27 00:10:40;;;;;;;6.43;3.35;;;;;;;6.44;52.80;95293.50;1052393;28;20020;-72
2021/04/27 00:11:10;;;;;;;7.90;3.30;;;;;;;6.48;52.51;95293.78;1052596;28;20441;-72
2021/04/27 00:11:40;;;;;;;9.27;3.53;;;;;;;6.44;52.47;95288.19;1052348;28;20012;-72
2021/04/27 00:12:11;;;;;;;7.50;3.50;;;;;;;6.38;52.94;95285.78;1051876;28;20021;-72
2021/04/27 00:12:41;;;;;;;6.73;3.53;;;;;;;6.44;52.95;95292.69;1052131;28;20012;-72
2021/04/27 00:13:12;;;;;;;6.00;3.30;;;;;;;6.45;53.07;95281.84;1051959;28;20016;-73
2021/04/27 00:13:42;;;;;;;6.57;3.40;;;;;;;6.46;52.85;95285.28;1052266;28;20012;-72
2021/04/27 00:14:13;;;;;;;8.33;3.33;;;;;;;6.39;53.33;95292.69;1051952;28;20016;-72
2021/04/27 00:14:43;;;;;;;8.83;3.20;;;;;;;6.38;52.57;95289.22;1052650;28;20062;-72
2021/04/27 00:15:17;;;;;;;7.17;3.30;;;;;;;6.31;52.83;95288.69;1052637;28;20096;-72
2021/04/27 00:15:48;;;;;;;7.10;3.38;;;;;;;6.31;52.59;95288.69;1052634;28;20047;-72
2021/04/27 00:16:19;;;;;;;7.35;3.50;;;;;;;6.34;52.53;95288.16;1052488;28;20016;-72
2021/04/27 00:16:49;;;;;;;7.97;3.00;;;;;;;6.29;52.85;95288.13;1052736;28;20024;-72
2021/04/27 00:17:20;;;;;;;7.20;3.17;;;;;;;6.31;52.86;95288.69;1052211;28;20013;-72
2021/04/27 00:17:51;;;;;;;10.70;3.47;;;;;;;6.30;52.81;95287.09;1052579;28;20035;-72
2021/04/27 00:18:21;;;;;;;6.20;3.45;;;;;;;6.33;52.67;95293.72;1052561;28;20024;-72
2021/04/27 00:18:52;;;;;;;11.77;3.30;;;;;;;6.36;52.76;95290.56;1052148;28;20111;-72
2021/04/27 00:19:22;;;;;;;6.07;2.93;;;;;;;6.33;53.09;95285.78;1052599;28;20348;-72
2021/04/27 00:19:53;;;;;;;8.30;3.33;;;;;;;6.29;53.09;95293.44;1052586;28;20019;-72
2021/04/27 00:20:24;;;;;;;6.70;3.40;;;;;;;6.22;53.23;95288.38;1052535;28;20043;-72
2021/04/27 00:20:54;;;;;;;7.57;3.17;;;;;;;6.25;53.16;95290.53;1052595;28;20012;-72
2021/04/27 00:21:25;;;;;;;6.93;3.53;;;;;;;6.22;52.86;95283.06;1052172;28;20545;-72
2021/04/27 00:21:55;;;;;;;5.30;3.07;;;;;;;6.19;53.08;95288.91;1052403;28;20044;-72
2021/04/27 00:22:26;;;;;;;5.83;3.10;;;;;;;6.21;52.89;95288.66;1052252;28;20035;-72
2021/04/27 00:22:57;;;;;;;5.33;2.90;;;;;;;6.24;52.95;95274.84;1053129;28;20377;-72
2021/04/27 00:23:27;;;;;;;10.13;3.27;;;;;;;6.24;53.32;95282.81;1053463;28;20031;-72
2021/04/27 00:23:57;;;;;;;6.20;3.63;;;;;;;6.20;53.22;95287.84;1053022;28;20254;-72
2021/04/27 00:24:31;;;;;;;11.27;3.73;;;;;;;6.23;52.91;95283.88;1053316;28;20028;-72
2021/04/27 00:25:03;;;;;;;6.60;3.20;;;;;;;6.24;52.97;95280.16;1053424;28;20020;-72
2021/04/27 00:25:33;;;;;;;7.35;3.28;;;;;;;6.16;53.58;95280.66;1053045;28;20520;-73
2021/04/27 00:26:04;;;;;;;5.67;2.90;;;;;;;6.14;53.63;95286.25;1053122;28;20016;-72
2021/04/27 00:26:34;;;;;;;6.23;3.27;;;;;;;6.17;53.55;95283.06;1053145;28;20016;-72
2021/04/27 00:27:05;;;;;;;5.57;3.13;;;;;;;6.13;53.34;95278.53;1048968;28;20082;-73
2021/04/27 00:27:35;;;;;;;7.97;3.37;;;;;;;6.15;53.38;95287.03;1048832;28;20028;-73
2021/04/27 00:28:06;;;;;;;4.40;2.90;;;;;;;6.10;53.65;95279.06;1048827;28;20024;-72
2021/04/27 00:28:37;;;;;;;7.18;3.67;;;;;;;6.09;53.94;95286.22;1044983;28;20122;-73
2021/04/27 00:29:07;;;;;;;6.33;3.23;;;;;;;6.05;53.71;95284.34;1048860;28;20170;-73
2021/04/27 00:29:38;;;;;;;8.27;3.17;;;;;;;6.07;53.85;95285.66;1049152;28;20020;-73
2021/04/27 00:30:09;;;;;;;5.73;3.10;;;;;;;6.07;53.82;95277.69;1053089;28;20028;-72
2021/04/27 00:30:39;;;;;;;7.72;3.30;;;;;;;6.08;53.97;95289.09;1053353;28;20103;-72
2021/04/27 00:31:10;;;;;;;9.40;3.57;;;;;;;6.07;53.82;95279.56;1053000;28;20048;-72
2021/04/27 00:31:41;;;;;;;8.43;3.20;;;;;;;6.01;54.42;95286.69;1053116;28;20012;-73
2021/04/27 00:32:11;;;;;;;7.63;3.27;;;;;;;6.04;54.20;95280.06;1053042;28;20063;-72
2021/04/27 00:32:42;;;;;;;6.07;3.13;;;;;;;6.06;54.02;95281.41;1053099;28;20012;-73
2021/04/27 00:33:12;;;;;;;6.40;3.10;;;;;;;6.07;53.86;95276.91;1053074;28;20035;-73
2021/04/27 00:33:43;;;;;;;7.60;3.47;;;;;;;6.04;53.81;95280.06;1053100;28;20012;-72
2021/04/27 00:34:13;;;;;;;6.03;3.30;;;;;;;6.07;53.87;95285.66;1052999;28;20032;-73
2021/04/27 00:34:44;;;;;;;7.13;3.57;;;;;;;6.07;53.70;95284.88;1052968;28;20013;-74
2021/04/27 00:35:14;;;;;;;8.13;3.50;;;;;;;6.10;53.79;95282.50;1053211;28;20024;-73
2021/04/27 00:35:45;;;;;;;5.57;2.80;;;;;;;6.09;54.24;95288.88;1053327;28;20500;-73
2021/04/27 00:36:15;;;;;;;9.67;3.30;;;;;;;6.06;54.31;95285.94;1053355;28;20047;-73
2021/04/27 00:36:46;;;;;;;9.00;3.30;;;;;;;6.06;53.97;95284.06;1053415;28;20020;-73
2021/04/27 00:37:16;;;;;;;7.97;3.37;;;;;;;6.10;53.85;95276.41;1053311;28;20020;-73
2021/04/27 00:37:47;;;;;;;9.03;3.70;;;;;;;6.07;53.82;95282.22;1052973;28;20036;-73
2021/04/27 00:38:17;;;;;;;7.53;2.90;;;;;;;6.09;53.83;95283.56;1048852;28;20110;-73
2021/04/27 00:38:47;;;;;;;6.33;3.13;;;;;;;6.10;53.83;95279.84;1048850;28;20032;-72
2021/04/27 00:39:18;;;;;;;8.93;3.20;;;;;;;6.12;53.90;95283.03;1048936;28;20024;-72
2021/04/27 00:39:48;;;;;;;7.30;3.43;;;;;;;6.16;53.43;95281.47;1053114;28;20008;-73
2021/04/27 00:40:19;;;;;;;6.17;3.37;;;;;;;6.12;53.65;95283.03;1053068;28;20028;-72
2021/04/27 00:40:49;;;;;;;6.07;3.20;;;;;;;6.10;53.55;95277.19;1053343;28;20032;-72
2021/04/27 00:41:20;;;;;;;5.87;3.47;;;;;;;6.09;53.68;95278.25;1052947;28;20520;-73
2021/04/27 00:41:50;;;;;;;6.40;3.77;;;;;;;6.10;53.51;95274.53;1048880;28;20492;-73
2021/04/27 00:42:31;;;;;;;7.53;3.57;;;;;;;6.10;53.56;95277.19;1040555;28;20490;-73
2021/04/27 00:43:02;;;;;;;12.88;3.25;;;;;;;6.12;53.88;95275.06;1042151;28;20025;-73
2021/04/27 00:43:32;;;;;;;6.25;3.10;;;;;;;6.15;53.74;95277.22;1046107;28;20255;-73
2021/04/27 00:44:03;;;;;;;8.20;3.73;;;;;;;6.16;53.51;95276.16;1048980;28;20036;-73
2021/04/27 00:44:35;;;;;;;6.57;3.38;;;;;;;6.18;53.48;95282.00;1048894;28;20016;-73
2021/04/27 00:45:15;;;;;;;15.05;3.40;;;;;;;6.15;53.50;95271.13;1049121;28;20480;-73
2021/04/27 00:45:46;;;;;;;6.07;3.25;;;;;;;6.08;53.97;95279.28;1049051;28;20048;-74
2021/04/27 00:46:16;;;;;;;9.93;3.37;;;;;;;6.09;53.93;95280.09;1049087;28;20036;-73
2021/04/27 00:46:47;;;;;;;6.87;3.73;;;;;;;6.12;53.80;95279.59;1049121;28;20150;-73
2021/04/27 00:47:17;;;;;;;6.87;3.37;;;;;;;6.08;53.71;95281.94;1048999;28;20059;-73
2021/04/27 00:47:48;;;;;;;6.00;3.23;;;;;;;6.08;53.77;95281.94;1049126;28;20025;-74
2021/04/27 00:48:18;;;;;;;6.70;3.40;;;;;;;6.03;54.03;95276.63;1049105;28;20012;-73
2021/04/27 00:48:48;;;;;;;7.47;3.27;;;;;;;6.02;53.87;95279.53;1049120;28;20450;-73
2021/04/27 00:49:19;;;;;;;6.87;3.57;;;;;;;6.05;53.85;95276.38;1049153;28;20483;-73
2021/04/27 00:49:49;;;;;;;6.23;4.00;;;;;;;6.01;54.13;95278.75;1049090;28;20021;-74
2021/04/27 00:50:25;;;;;;;11.03;3.87;;;;;;;5.99;54.41;95279.00;1048821;28;20368;-73
2021/04/27 00:50:56;;;;;;;12.07;3.30;;;;;;;5.91;54.55;95268.88;1044671;28;20020;-73
2021/04/27 00:51:26;;;;;;;8.80;3.50;;;;;;;5.99;54.52;95280.88;1044679;28;20451;-72
2021/04/27 00:51:57;;;;;;;10.17;3.43;;;;;;;6.02;54.49;95276.88;1048821;28;20021;-72
2021/04/27 00:52:27;;;;;;;8.10;3.87;;;;;;;5.94;54.58;95271.03;1045344;28;20009;-72
2021/04/27 00:52:58;;;;;;;12.40;3.43;;;;;;;6.01;54.60;95272.63;1048742;28;20020;-72
2021/04/27 00:53:29;;;;;;;10.23;3.77;;;;;;;6.02;54.59;95272.38;1048833;28;20074;-72
2021/04/27 00:54:00;;;;;;;8.47;3.80;;;;;;;6.05;54.29;95271.06;1048794;28;20027;-72
2021/04/27 00:54:31;;;;;;;6.05;3.42;;;;;;;5.98;54.53;95268.63;1044616;28;20016;-72
2021/04/27 00:55:02;;;;;;;8.13;3.63;;;;;;;6.01;54.66;95264.69;1048749;28;20096;-72
2021/04/27 00:55:33;;;;;;;6.72;3.28;;;;;;;6.01;54.72;95276.09;1048566;28;20069;-72
2021/04/27 00:56:04;;;;;;;6.60;3.40;;;;;;;5.98;54.78;95271.28;1049292;28;20125;-72
2021/04/27 00:56:35;;;;;;;9.23;3.50;;;;;;;6.00;54.98;95271.84;1052706;28;20143;-74
2021/04/27 00:57:05;;;;;;;7.30;3.58;;;;;;;5.95;54.75;95274.47;1053329;28;20431;-74
2021/04/27 00:57:35;;;;;;;6.63;3.23;;;;;;;5.92;54.85;95272.31;1052945;28;20024;-74
2021/04/27 00:58:06;;;;;;;8.70;3.67;;;;;;;5.87;54.85;95269.63;1043966;28;20021;-73
2021/04/27 00:58:36;;;;;;;7.60;3.90;;;;;;;5.89;55.39;95270.97;1044450;28;20021;-74
2021/04/27 00:59:07;;;;;;;7.30;3.40;;;;;;;5.92;54.95;95272.31;1040696;28;20025;-73
2021/04/27 00:59:37;;;;;;;7.07;3.73;;;;;;;5.91;54.93;95268.88;1044692;28;20009;-73
2021/04/27 01:00:11;;;;;;;10.43;3.50;;;;;;;5.96;54.84;95265.47;1052944;28;20024;-73
2021/04/27 01:00:41;;;;;;;7.32;3.72;;;;;;;5.94;54.84;95272.88;1052639;28;20023;-73
2021/04/27 01:01:12;;;;;;;9.90;3.90;;;;;;;5.87;54.80;95270.41;1052927;28;20039;-74
2021/04/27 01:01:44;;;;;;;7.13;3.40;;;;;;;5.85;55.17;95267.22;1053036;28;20372;-74
2021/04/27 01:02:15;;;;;;;6.75;3.90;;;;;;;5.89;55.00;95270.97;1053189;28;20182;-73
2021/04/27 01:02:46;;;;;;;9.37;3.80;;;;;;;5.89;55.18;95275.47;1053337;28;20074;-73
2021/04/27 01:03:16;;;;;;;8.70;3.20;;;;;;;5.89;55.17;95270.97;1053231;28;20060;-73
2021/04/27 01:03:47;;;;;;;8.43;3.63;;;;;;;5.77;55.39;95278.31;1053186;28;20024;-73
2021/04/27 01:04:17;;;;;;;7.87;3.27;;;;;;;5.79;55.63;95281.53;1053173;28;20370;-73
2021/04/27 01:04:48;;;;;;;9.07;3.70;;;;;;;5.80;55.33;95271.72;1053320;28;20012;-73
2021/04/27 01:05:29;;;;;;;6.97;4.00;;;;;;;5.80;55.31;95264.56;1053233;28;20469;-73
2021/04/27 01:06:00;;;;;;;6.68;3.75;;;;;;;5.79;55.34;95272.78;1053230;28;20067;-73
2021/04/27 01:06:30;;;;;;;9.07;3.40;;;;;;;5.76;55.47;95273.28;1053093;28;20469;-73
2021/04/27 01:07:01;;;;;;;7.30;3.70;;;;;;;5.74;55.04;95269.03;1048959;28;20522;-73
2021/04/27 01:07:33;;;;;;;9.67;3.67;;;;;;;5.72;55.11;95273.78;1049038;28;20044;-73
2021/04/27 01:08:27;;;;;;;5.63;3.55;;;;;;;5.72;55.25;95271.13;1048696;28;20150;-73
2021/04/27 01:09:06;;;;;;;10.50;3.75;;;;;;;5.71;55.31;95269.53;1048677;28;20497;-73
2021/04/27 01:09:38;;;;;;;6.65;3.78;;;;;;;5.70;55.32;95270.59;1044819;28;20052;-73
2021/04/27 01:10:10;;;;;;;7.80;3.70;;;;;;;5.73;55.74;95271.91;1048713;28;20028;-73
2021/04/27 01:11:02;;;;;;;5.65;3.50;;;;;;;5.71;55.85;95277.50;1044537;28;20072;-74
2021/04/27 01:11:51;;;;;;;10.07;3.60;;;;;;;5.65;55.84;95270.56;1047882;28;20035;-73
2021/04/27 01:12:32;;;;;;;7.78;4.13;;;;;;;5.62;55.77;95267.63;1045706;28;20517;-73
2021/04/27 01:13:12;;;;;;;7.10;3.58;;;;;;;5.60;55.41;95277.69;1046852;28;20104;-73
2021/04/27 01:14:19;;;;;;;6.07;3.60;;;;;;;5.58;55.86;95271.81;1044243;28;20164;-73
2021/04/27 01:15:14;;;;;;;10.40;3.92;;;;;;;5.50;55.82;95277.63;1038552;28;20073;-73
2021/04/27 01:15:45;;;;;;;6.72;3.58;;;;;;;5.49;56.06;95271.53;1044767;28;20029;-73
2021/04/27 01:16:15;;;;;;;7.77;3.70;;;;;;;5.48;56.17;95269.94;1048616;28;20510;-73
2021/04/27 01:16:49;;;;;;;8.67;3.97;;;;;;;5.39;56.73;95264.31;1052167;28;20024;-73
2021/04/27 01:17:20;;;;;;;7.85;4.10;;;;;;;5.39;56.32;95269.59;1048679;28;20485;-74
2021/04/27 01:17:50;;;;;;;10.63;3.95;;;;;;;5.39;56.26;95266.94;1040893;28;20041;-74
2021/04/27 01:18:21;;;;;;;7.57;3.67;;;;;;;5.36;56.54;95267.44;1040429;28;20033;-73
2021/04/27 01:18:52;;;;;;;8.17;3.90;;;;;;;5.40;56.63;95265.09;1036448;28;20025;-73
2021/04/27 01:19:37;;;;;;;8.38;3.92;;;;;;;5.33;56.70;95261.88;1036808;28;20479;-73
2021/04/27 01:20:09;;;;;;;8.65;4.13;;;;;;;5.29;56.84;95260.78;1040442;28;20041;-73
2021/04/27 01:20:44;;;;;;;12.45;3.88;;;;;;;5.28;57.04;95259.97;1042796;28;20029;-73
2021/04/27 01:21:14;;;;;;;8.95;4.20;;;;;;;5.29;56.88;95271.38;1047184;28;20111;-73
2021/04/27 01:21:44;;;;;;;6.27;3.60;;;;;;;5.30;56.82;95265.81;1042356;28;20152;-73
2021/04/27 01:22:17;;;;;;;10.53;3.80;;;;;;;5.28;56.91;95259.97;1040121;28;20115;-73
2021/04/27 01:22:57;;;;;;;9.50;4.10;;;;;;;5.29;56.82;95258.94;1036439;28;20025;-73
2021/04/27 01:23:56;;;;;;;8.75;3.97;;;;;;;5.30;56.64;95257.06;1042167;28;20033;-73
2021/04/27 01:24:31;;;;;;;7.35;4.05;;;;;;;5.20;56.96;95261.25;1044492;28;20029;-73
2021/04/27 01:25:02;;;;;;;8.07;3.63;;;;;;;5.19;57.29;95258.84;1041171;28;20036;-73
2021/04/27 01:25:38;;;;;;;7.88;3.50;;;;;;;5.15;56.89;95258.56;1040033;28;20494;-73
2021/04/27 01:26:12;;;;;;;7.50;3.72;;;;;;;5.20;57.18;95253.28;1035088;28;20544;-73
2021/04/27 01:26:56;;;;;;;6.43;3.80;;;;;;;5.24;56.93;95256.25;1041791;28;20029;-73
2021/04/27 01:27:27;;;;;;;8.60;3.90;;;;;;;5.23;57.16;95254.66;1043943;28;20498;-73
2021/04/27 01:27:58;;;;;;;9.75;3.75;;;;;;;5.26;56.73;95258.63;1041438;28;20033;-73
2021/04/27 01:28:29;;;;;;;6.60;3.77;;;;;;;5.31;56.62;95261.31;1044501;28;20017;-74
2021/04/27 01:28:59;;;;;;;9.02;4.25;;;;;;;5.30;56.60;95249.91;1040176;28;20075;-73
2021/04/27 01:29:30;;;;;;;7.67;3.50;;;;;;;5.24;56.83;95250.94;1040254;28;20052;-73
2021/04/27 01:30:01;;;;;;;7.60;3.60;;;;;;;5.25;56.86;95257.03;1044521;28;20029;-73
2021/04/27 01:30:37;;;;;;;7.05;3.50;;;;;;;5.21;57.19;95249.59;1036307;28;20534;-73
2021/04/27 01:31:07;;;;;;;9.93;3.85;;;;;;;5.25;56.96;95255.19;1034157;28;20472;-73
2021/04/27 01:31:39;;;;;;;8.80;3.70;;;;;;;5.25;56.76;95252.53;1036088;28;20014;-73
2021/04/27 01:32:10;;;;;;;12.00;4.20;;;;;;;5.30;56.60;95251.78;1034845;28;20015;-74
2021/04/27 01:32:40;;;;;;;8.43;3.60;;;;;;;5.19;57.16;95246.41;1041295;28;20029;-73
2021/04/27 01:33:13;;;;;;;7.37;3.53;;;;;;;5.13;57.23;95247.41;1044800;28;20024;-73
2021/04/27 01:33:43;;;;;;;11.77;3.40;;;;;;;5.07;57.48;95248.44;1048640;28;20517;-73
2021/04/27 01:34:20;;;;;;;8.33;4.10;;;;;;;5.09;57.30;95243.69;1048216;28;20033;-73
2021/04/27 01:34:50;;;;;;;10.45;4.13;;;;;;;5.10;57.51;95239.97;1049769;28;20025;-73
2021/04/27 01:35:21;;;;;;;7.20;3.37;;;;;;;5.11;57.29;95246.84;1048699;28;20410;-73
2021/04/27 01:35:52;;;;;;;8.75;3.58;;;;;;;5.11;57.60;95248.72;1045613;28;20158;-73
2021/04/27 01:36:22;;;;;;;7.03;4.10;;;;;;;5.08;57.54;95246.59;1044546;28;20029;-73
2021/04/27 01:36:53;;;;;;;5.00;3.30;;;;;;;4.98;58.28;95244.66;1040334;28;20022;-73
2021/04/27 01:37:24;;;;;;;9.50;3.90;;;;;;;4.98;57.49;95249.94;1044642;28;20059;-73
2021/04/27 01:37:54;;;;;;;8.87;3.43;;;;;;;5.03;57.63;95236.75;1040082;28;20021;-73
2021/04/27 01:38:25;;;;;;;7.07;3.50;;;;;;;5.04;57.48;95235.69;1040392;28;20017;-73
2021/04/27 01:38:55;;;;;;;10.07;4.27;;;;;;;5.05;57.48;95241.78;1044533;28;20024;-73
2021/04/27 01:39:27;;;;;;;7.73;3.47;;;;;;;5.11;57.48;95238.91;1040529;28;20017;-73
2021/04/27 01:39:57;;;;;;;5.50;3.60;;;;;;;5.07;57.34;95239.69;1044680;28;20025;-73
2021/04/27 01:40:28;;;;;;;8.63;3.70;;;;;;;5.04;57.86;95241.00;1044421;28;20009;-73
2021/04/27 01:40:58;;;;;;;6.87;3.27;;;;;;;5.09;57.66;95240.22;1044803;28;20017;-73
2021/04/27 01:41:29;;;;;;;6.57;3.70;;;;;;;5.08;57.58;95238.63;1048653;28;20015;-73
2021/04/27 01:42:04;;;;;;;9.43;4.40;;;;;;;5.10;57.79;95244.47;1048662;28;20038;-73
2021/04/27 01:42:35;;;;;;;7.88;4.07;;;;;;;5.07;57.79;95245.00;1048897;28;20142;-74
2021/04/27 01:43:05;;;;;;;8.83;4.00;;;;;;;5.05;57.39;95245.22;1048569;28;20571;-73
2021/04/27 01:43:36;;;;;;;10.13;3.67;;;;;;;5.08;57.71;95234.13;1040297;28;20075;-74
2021/04/27 01:44:06;;;;;;;11.00;4.20;;;;;;;5.10;57.60;95241.81;1040316;28;20048;-73
2021/04/27 01:44:37;;;;;;;5.37;3.33;;;;;;;5.04;57.81;95238.34;1040224;28;20382;-73
2021/04/27 01:45:08;;;;;;;6.57;3.55;;;;;;;5.09;57.45;95246.31;1044409;28;20382;-73
2021/04/27 01:45:38;;;;;;;11.27;4.00;;;;;;;5.05;58.08;95239.13;1044368;28;20071;-73
2021/04/27 01:46:09;;;;;;;7.20;3.53;;;;;;;5.05;57.77;95242.59;1044590;28;20048;-73
2021/04/27 01:46:40;;;;;;;6.70;3.90;;;;;;;5.05;57.57;95239.13;1040248;28;20040;-73
2021/04/27 01:47:10;;;;;;;7.88;4.38;;;;;;;5.06;57.87;95236.22;1040171;28;20029;-74
2021/04/27 01:47:41;;;;;;;9.07;3.70;;;;;;;5.02;57.82;95242.31;1035809;28;20385;-73
2021/04/27 01:48:11;;;;;;;8.27;3.87;;;;;;;4.96;58.11;95236.16;1036639;28;20571;-73
2021/04/27 01:48:42;;;;;;;7.20;3.57;;;;;;;4.94;58.23;95233.75;1040295;28;20104;-73
2021/04/27 01:49:13;;;;;;;7.70;4.10;;;;;;;5.01;57.94;95243.34;1044618;28;20021;-73
2021/04/27 01:49:44;;;;;;;10.30;3.58;;;;;;;5.09;57.83;95237.59;1052761;28;20135;-73
2021/04/27 01:50:14;;;;;;;8.77;4.03;;;;;;;5.07;57.79;95235.19;1048527;28;20576;-73
2021/04/27 01:50:45;;;;;;;11.47;3.90;;;;;;;5.01;58.29;95240.69;1040281;28;20046;-73
2021/04/27 01:51:15;;;;;;;9.40;3.80;;;;;;;4.98;58.18;95238.56;1032219;28;20538;-73
2021/04/27 01:51:46;;;;;;;10.63;4.00;;;;;;;4.99;57.65;95242.81;1032136;28;20030;-73
2021/04/27 01:52:16;;;;;;;9.00;3.80;;;;;;;4.94;58.13;95232.97;1028360;28;20058;-73
2021/04/27 01:52:48;;;;;;;8.77;4.00;;;;;;;4.98;58.20;95243.84;1031628;28;20086;-73
2021/04/27 01:53:19;;;;;;;8.45;4.28;;;;;;;5.02;57.78;95243.09;1040158;28;20056;-74
2021/04/27 01:53:50;;;;;;;13.43;4.10;;;;;;;5.01;57.82;95244.13;1040670;28;20084;-73
2021/04/27 01:54:24;;;;;;;6.88;3.90;;;;;;;4.98;57.68;95236.72;1044759;28;20529;-73
2021/04/27 01:54:54;;;;;;;9.05;4.00;;;;;;;4.93;58.14;95240.09;1048080;28;20033;-73
2021/04/27 01:55:25;;;;;;;10.43;3.73;;;;;;;4.98;58.28;95236.72;1040984;28;20022;-74
2021/04/27 01:55:55;;;;;;;9.33;4.27;;;;;;;4.94;58.41;95236.41;1040902;28;20017;-73
2021/04/27 01:56:26;;;;;;;6.63;3.70;;;;;;;4.94;58.15;95239.06;1044203;28;20462;-73
2021/04/27 01:56:56;;;;;;;8.67;4.50;;;;;;;4.93;58.00;95234.03;1040422;28;20061;-73
2021/04/27 01:57:27;;;;;;;6.87;4.07;;;;;;;4.91;57.98;95234.28;1044596;28;20821;-73
2021/04/27 01:57:57;;;;;;;7.30;3.40;;;;;;;4.97;58.15;95237.75;1044744;28;20378;-73
2021/04/27 01:58:28;;;;;;;12.27;3.80;;;;;;;4.89;58.58;95230.28;1044234;28;20025;-74
2021/04/27 01:58:58;;;;;;;10.63;3.83;;;;;;;4.87;58.22;95232.38;1044426;28;20064;-73
2021/04/27 01:59:28;;;;;;;10.90;4.00;;;;;;;4.89;58.44;95233.72;1044423;28;20025;-73
2021/04/27 01:59:59;;;;;;;11.30;3.97;;;;;;;4.92;57.95;95227.13;1044624;28;20013;-73
2021/04/27 02:00:29;;;;;;;8.57;4.30;;;;;;;4.88;58.33;95229.47;1052694;28;20024;-73
2021/04/27 02:01:00;;;;;;;12.27;3.47;;;;;;;4.84;58.62;95227.59;1052629;28;20066;-73
2021/04/27 02:01:31;;;;;;;8.88;3.83;;;;;;;4.89;58.30;95232.91;1048198;28;20511;-74
2021/04/27 02:02:01;;;;;;;8.80;3.83;;;;;;;4.81;59.02;95225.44;1048593;28;20073;-74
2021/04/27 02:02:32;;;;;;;7.67;3.90;;;;;;;4.84;58.65;95225.72;1048689;28;20051;-73
2021/04/27 02:03:03;;;;;;;6.82;3.88;;;;;;;4.82;59.11;95224.41;1052719;28;20066;-73
2021/04/27 02:03:59;;;;;;;7.57;3.77;;;;;;;4.79;58.89;95225.69;1052576;28;20379;-73
2021/04/27 02:04:30;;;;;;;8.35;4.07;;;;;;;4.83;58.79;95232.09;1049705;28;20425;-73
2021/04/27 02:05:00;;;;;;;8.50;3.97;;;;;;;4.79;59.04;95230.19;1052699;28;20039;-73
2021/04/27 02:05:31;;;;;;;11.27;4.23;;;;;;;4.73;58.46;95229.34;1052992;28;20023;-74
2021/04/27 02:06:01;;;;;;;6.97;3.83;;;;;;;4.69;58.86;95229.03;1053063;28;20027;-74
2021/04/27 02:06:32;;;;;;;9.10;3.87;;;;;;;4.73;59.19;95226.69;1052512;28;20016;-73
2021/04/27 02:07:02;;;;;;;7.70;3.70;;;;;;;4.76;59.37;95225.38;1052510;28;20020;-73
2021/04/27 02:07:34;;;;;;;12.90;3.63;;;;;;;4.75;59.19;95232.53;1052400;28;20035;-73
2021/04/27 02:08:04;;;;;;;9.57;3.90;;;;;;;4.70;59.14;95224.53;1052743;28;20020;-73
2021/04/27 02:08:36;;;;;;;9.53;3.83;;;;;;;4.73;59.31;95231.19;1052618;28;20110;-73
2021/04/27 02:09:09;;;;;;;7.75;3.83;;;;;;;4.69;59.61;95231.69;1052708;28;20020;-73
2021/04/27 02:09:39;;;;;;;7.07;3.58;;;;;;;4.72;59.39;95233.06;1052641;28;20520;-74
2021/04/27 02:10:11;;;;;;;10.00;4.17;;;;;;;4.65;59.20;95227.94;1052653;28;20020;-73
2021/04/27 02:10:41;;;;;;;10.90;4.38;;;;;;;4.61;59.87;95234.81;1052664;28;20062;-73
2021/04/27 02:11:12;;;;;;;6.90;4.17;;;;;;;4.59;59.84;95228.16;1048698;28;20499;-73
2021/04/27 02:11:44;;;;;;;13.00;4.40;;;;;;;4.57;59.62;95227.63;1052615;28;20058;-73
2021/04/27 02:12:14;;;;;;;7.95;4.18;;;;;;;4.50;59.78;95229.66;1044042;28;20017;-74
2021/04/27 02:12:46;;;;;;;10.27;4.00;;;;;;;4.51;60.08;95221.47;1040545;28;20042;-73
2021/04/27 02:13:17;;;;;;;7.68;4.00;;;;;;;4.50;59.87;95227.00;1043520;28;20033;-73
2021/04/27 02:13:47;;;;;;;13.70;3.93;;;;;;;4.52;60.07;95227.56;1040683;28;20125;-73
2021/04/27 02:14:20;;;;;;;7.80;3.93;;;;;;;4.50;59.76;95227.00;1044699;28;20013;-73
2021/04/27 02:14:50;;;;;;;12.95;4.85;;;;;;;4.57;59.93;95233.69;1044351;28;20044;-74
2021/04/27 02:15:22;;;;;;;8.87;3.70;;;;;;;4.53;59.99;95227.31;1044664;28;20024;-73
2021/04/27 02:15:52;;;;;;;7.40;3.92;;;;;;;4.54;59.81;95231.53;1044220;28;20024;-73
2021/04/27 02:16:23;;;;;;;6.67;3.87;;;;;;;4.56;59.73;95220.72;1040578;28;20442;-73
2021/04/27 02:17:10;;;;;;;10.27;4.40;;;;;;;4.58;60.13;95224.72;1036196;28;20026;-73
2021/04/27 02:17:50;;;;;;;8.90;4.35;;;;;;;4.55;59.75;95229.69;1038431;28;20026;-73
2021/04/27 02:18:24;;;;;;;9.77;4.15;;;;;;;4.50;59.75;95222.50;1036083;28;20014;-73
2021/04/27 02:18:56;;;;;;;10.77;4.40;;;;;;;4.51;60.06;95224.13;1032047;28;20022;-74
2021/04/27 02:19:29;;;;;;;11.23;3.85;;;;;;;4.46;59.84;95226.72;1031978;28;20503;-73
2021/04/27 02:19:59;;;;;;;8.93;3.67;;;;;;;4.47;60.04;95224.88;1035609;28;20113;-73
2021/04/27 02:20:30;;;;;;;7.20;4.20;;;;;;;4.45;60.39;95219.81;1041733;28;20370;-73
2021/04/27 02:21:01;;;;;;;10.00;4.23;;;;;;;4.47;60.24;95222.22;1048470;28;20016;-73
2021/04/27 02:21:33;;;;;;;10.13;4.40;;;;;;;4.39;60.48;95224.25;1048417;28;20017;-73
2021/04/27 02:22:05;;;;;;;8.88;3.80;;;;;;;4.34;60.35;95223.41;1048451;28;20384;-73
2021/04/27 02:22:35;;;;;;;9.40;3.63;;;;;;;4.34;60.61;95224.19;1048800;28;20550;-73
2021/04/27 02:23:06;;;;;;;9.47;3.90;;;;;;;4.33;60.73;95227.09;1052607;28;20077;-73
2021/04/27 02:23:36;;;;;;;7.27;4.00;;;;;;;4.33;60.54;95213.88;1048377;28;20013;-73
2021/04/27 02:24:07;;;;;;;9.70;4.10;;;;;;;4.32;60.82;95220.22;1048138;28;20024;-74
2021/04/27 02:24:38;;;;;;;11.10;4.22;;;;;;;4.29;60.89;95226.78;1044155;28;20041;-73
2021/04/27 02:25:09;;;;;;;8.10;3.97;;;;;;;4.33;60.41;95216.53;1048436;28;20017;-73
2021/04/27 02:25:40;;;;;;;7.65;3.80;;;;;;;4.30;60.58;95220.47;1040171;28;20087;-73
2021/04/27 02:26:12;;;;;;;11.30;3.93;;;;;;;4.32;60.47;95215.72;1036273;28;20076;-73
2021/04/27 02:26:42;;;;;;;6.32;3.80;;;;;;;4.36;60.55;95221.31;1036200;28;20057;-73
2021/04/27 02:27:13;;;;;;;8.27;4.10;;;;;;;4.28;60.97;95219.13;1040370;28;20467;-73
2021/04/27 02:27:43;;;;;;;6.07;3.80;;;;;;;4.30;60.53;95219.66;1039731;28;20034;-73
2021/04/27 02:28:14;;;;;;;9.03;4.10;;;;;;;4.30;60.89;95217.84;1042253;28;20021;-73
2021/04/27 02:28:44;;;;;;;10.77;4.77;;;;;;;4.27;61.20;95214.88;1044282;28;20029;-73
2021/04/27 02:29:15;;;;;;;8.03;4.10;;;;;;;4.24;61.02;95216.16;1035995;28;20046;-73
2021/04/27 02:29:45;;;;;;;9.00;4.37;;;;;;;4.21;61.08;95213.22;1040010;28;20149;-73
2021/04/27 02:30:17;;;;;;;9.30;4.20;;;;;;;4.24;61.08;95218.00;1040100;28;20018;-73
2021/04/27 02:30:47;;;;;;;7.40;4.00;;;;;;;4.21;61.26;95218.53;1040470;28;20033;-73
2021/04/27 02:31:18;;;;;;;8.27;4.07;;;;;;;4.24;60.61;95218.81;1040461;28;20451;-73
2021/04/27 02:31:48;;;;;;;8.83;4.10;;;;;;;4.21;60.64;95218.53;1036621;28;20026;-73